sensor_id;sensor_type;location;lat;lon;timestamp;P1;durP1;ratioP1;P2;durP2;ratioP2
38935;SDS011;25541;47.458;9.644;2022-08-19T02:47:52;7.82;;;4.22;;
38935;SDS011;25541;47.458;9.644;2022-08-19T02:50:18;6.30;;;4.10;;
38935;SDS011;25541;47.458;9.644;2022-08-19T02:52:44;7.72;;;4.00;;
38935;SDS011;25541;47.458;9.644;2022-08-19T02:55:10;8.25;;;4.63;;
38935;SDS011;25541;47.458;9.644;2022-08-19T02:57:36;8.30;;;4.38;;
38935;SDS011;25541;47.458;9.644;2022-08-19T03:00:03;6.53;;;4.68;;
38935;SDS011;25541;47.458;9.644;2022-08-19T03:02:31;7.25;;;4.85;;
38935;SDS011;25541;47.458;9.644;2022-08-19T03:04:56;7.47;;;4.93;;
38935;SDS011;25541;47.458;9.644;2022-08-19T03:07:22;7.70;;;4.57;;
38935;SDS011;25541;47.458;9.644;2022-08-19T03:09:48;8.38;;;4.43;;
38935;SDS011;25541;47.458;9.644;2022-08-19T03:12:13;7.28;;;4.55;;
38935;SDS011;25541;47.458;9.644;2022-08-19T03:14:39;10.68;;;4.70;;
38935;SDS011;25541;47.458;9.644;2022-08-19T03:17:05;6.70;;;4.43;;
38935;SDS011;25541;47.458;9.644;2022-08-19T03:19:31;7.95;;;5.05;;
38935;SDS011;25541;47.458;9.644;2022-08-19T03:21:56;6.68;;;4.38;;
38935;SDS011;25541;47.458;9.644;2022-08-19T03:24:23;5.93;;;3.95;;
38935;SDS011;25541;47.458;9.644;2022-08-19T03:26:50;6.13;;;4.45;;
38935;SDS011;25541;47.458;9.644;2022-08-19T03:29:22;8.38;;;4.32;;
38935;SDS011;25541;47.458;9.644;2022-08-19T03:31:48;7.07;;;4.32;;
38935;SDS011;25541;47.458;9.644;2022-08-19T03:34:36;6.63;;;4.10;;
38935;SDS011;25541;47.458;9.644;2022-08-19T03:37:05;6.35;;;4.43;;
38935;SDS011;25541;47.458;9.644;2022-08-19T03:39:33;5.90;;;4.00;;
38935;SDS011;25541;47.458;9.644;2022-08-19T03:42:01;6.15;;;4.70;;
38935;SDS011;25541;47.458;9.644;2022-08-19T03:44:27;9.18;;;5.13;;
38935;SDS011;25541;47.458;9.644;2022-08-19T03:46:56;6.63;;;4.50;;
38935;SDS011;25541;47.458;9.644;2022-08-19T03:49:24;7.93;;;4.93;;
38935;SDS011;25541;47.458;9.644;2022-08-19T03:51:52;6.40;;;4.45;;
38935;SDS011;25541;47.458;9.644;2022-08-19T03:54:20;9.52;;;5.18;;
38935;SDS011;25541;47.458;9.644;2022-08-19T03:56:48;6.13;;;4.20;;
38935;SDS011;25541;47.458;9.644;2022-08-19T03:59:29;9.38;;;4.88;;
38935;SDS011;25541;47.458;9.644;2022-08-19T04:01:58;8.48;;;4.38;;
38935;SDS011;25541;47.458;9.644;2022-08-19T04:04:25;5.97;;;4.35;;
38935;SDS011;25541;47.458;9.644;2022-08-19T04:06:52;6.53;;;4.38;;
38935;SDS011;25541;47.458;9.644;2022-08-19T04:09:18;6.55;;;4.15;;
38935;SDS011;25541;47.458;9.644;2022-08-19T04:11:46;6.47;;;4.35;;
38935;SDS011;25541;47.458;9.644;2022-08-19T04:14:16;7.32;;;4.28;;
38935;SDS011;25541;47.458;9.644;2022-08-19T04:19:11;6.47;;;4.20;;
38935;SDS011;25541;47.458;9.644;2022-08-19T04:21:38;7.75;;;4.75;;
38935;SDS011;25541;47.458;9.644;2022-08-19T04:24:04;8.68;;;4.97;;
38935;SDS011;25541;47.458;9.644;2022-08-19T04:26:32;9.43;;;5.20;;
38935;SDS011;25541;47.458;9.644;2022-08-19T04:29:00;7.25;;;4.90;;
38935;SDS011;25541;47.458;9.644;2022-08-19T04:33:56;8.13;;;4.95;;
38935;SDS011;25541;47.458;9.644;2022-08-19T04:36:25;8.82;;;5.78;;
38935;SDS011;25541;47.458;9.644;2022-08-19T04:38:53;9.00;;;5.13;;
38935;SDS011;25541;47.458;9.644;2022-08-19T04:41:21;7.65;;;5.20;;
38935;SDS011;25541;47.458;9.644;2022-08-19T04:44:06;7.78;;;5.47;;
38935;SDS011;25541;47.458;9.644;2022-08-19T04:46:32;8.38;;;5.03;;
38935;SDS011;25541;47.458;9.644;2022-08-19T04:48:59;8.75;;;5.20;;
38935;SDS011;25541;47.458;9.644;2022-08-19T04:51:26;7.55;;;5.13;;
38935;SDS011;25541;47.458;9.644;2022-08-19T04:53:53;7.25;;;4.63;;
38935;SDS011;25541;47.458;9.644;2022-08-19T04:56:20;7.25;;;4.57;;
38935;SDS011;25541;47.458;9.644;2022-08-19T04:58:47;8.10;;;5.03;;
38935;SDS011;25541;47.458;9.644;2022-08-19T05:01:20;7.85;;;4.80;;
38935;SDS011;25541;47.458;9.644;2022-08-19T05:03:47;7.65;;;4.55;;
38935;SDS011;25541;47.458;9.644;2022-08-19T05:06:15;6.97;;;4.40;;
38935;SDS011;25541;47.458;9.644;2022-08-19T05:08:43;6.50;;;4.43;;
38935;SDS011;25541;47.458;9.644;2022-08-19T05:11:10;7.32;;;4.72;;
38935;SDS011;25541;47.458;9.644;2022-08-19T05:13:39;7.15;;;4.82;;
38935;SDS011;25541;47.458;9.644;2022-08-19T05:16:04;7.10;;;4.75;;
38935;SDS011;25541;47.458;9.644;2022-08-19T05:18:30;9.32;;;5.53;;
38935;SDS011;25541;47.458;9.644;2022-08-19T05:21:16;8.27;;;5.70;;
38935;SDS011;25541;47.458;9.644;2022-08-19T05:24:02;11.27;;;5.32;;
38935;SDS011;25541;47.458;9.644;2022-08-19T05:26:31;10.40;;;6.13;;
38935;SDS011;25541;47.458;9.644;2022-08-19T05:28:56;14.60;;;6.18;;
38935;SDS011;25541;47.458;9.644;2022-08-19T05:31:22;12.25;;;6.07;;
38935;SDS011;25541;47.458;9.644;2022-08-19T05:33:48;10.75;;;5.88;;
38935;SDS011;25541;47.458;9.644;2022-08-19T05:36:14;12.93;;;6.80;;
38935;SDS011;25541;47.458;9.644;2022-08-19T05:38:40;10.23;;;6.68;;
38935;SDS011;25541;47.458;9.644;2022-08-19T05:41:07;9.65;;;6.15;;
38935;SDS011;25541;47.458;9.644;2022-08-19T05:43:34;10.70;;;5.68;;
38935;SDS011;25541;47.458;9.644;2022-08-19T05:45:59;20.00;;;7.38;;
38935;SDS011;25541;47.458;9.644;2022-08-19T05:48:25;13.20;;;8.20;;
38935;SDS011;25541;47.458;9.644;2022-08-19T05:50:51;13.75;;;8.50;;
38935;SDS011;25541;47.458;9.644;2022-08-19T05:53:17;14.40;;;7.93;;
38935;SDS011;25541;47.458;9.644;2022-08-19T05:55:43;17.25;;;8.77;;
38935;SDS011;25541;47.458;9.644;2022-08-19T05:58:09;15.68;;;8.77;;
38935;SDS011;25541;47.458;9.644;2022-08-19T06:00:35;13.27;;;7.40;;
38935;SDS011;25541;47.458;9.644;2022-08-19T06:03:02;13.27;;;7.13;;
38935;SDS011;25541;47.458;9.644;2022-08-19T06:05:29;13.05;;;7.68;;
38935;SDS011;25541;47.458;9.644;2022-08-19T06:07:55;19.85;;;11.77;;
38935;SDS011;25541;47.458;9.644;2022-08-19T06:10:22;13.25;;;7.15;;
38935;SDS011;25541;47.458;9.644;2022-08-19T06:12:48;13.35;;;6.65;;
38935;SDS011;25541;47.458;9.644;2022-08-19T06:15:14;12.20;;;6.95;;
38935;SDS011;25541;47.458;9.644;2022-08-19T06:17:40;12.10;;;6.93;;
38935;SDS011;25541;47.458;9.644;2022-08-19T06:20:07;8.73;;;5.65;;
38935;SDS011;25541;47.458;9.644;2022-08-19T06:22:46;9.98;;;5.72;;
38935;SDS011;25541;47.458;9.644;2022-08-19T06:25:16;8.13;;;5.13;;
38935;SDS011;25541;47.458;9.644;2022-08-19T06:27:42;9.27;;;5.32;;
38935;SDS011;25541;47.458;9.644;2022-08-19T06:30:09;10.43;;;5.47;;
38935;SDS011;25541;47.458;9.644;2022-08-19T06:32:36;9.52;;;5.30;;
38935;SDS011;25541;47.458;9.644;2022-08-19T06:35:02;8.75;;;5.75;;
38935;SDS011;25541;47.458;9.644;2022-08-19T06:37:29;13.48;;;6.43;;
38935;SDS011;25541;47.458;9.644;2022-08-19T06:39:55;11.18;;;6.20;;
38935;SDS011;25541;47.458;9.644;2022-08-19T06:42:20;19.00;;;8.25;;
38935;SDS011;25541;47.458;9.644;2022-08-19T06:44:47;12.18;;;6.50;;
38935;SDS011;25541;47.458;9.644;2022-08-19T06:47:14;11.95;;;6.97;;
38935;SDS011;25541;47.458;9.644;2022-08-19T06:49:43;11.95;;;6.60;;
38935;SDS011;25541;47.458;9.644;2022-08-19T06:52:09;9.18;;;5.15;;
38935;SDS011;25541;47.458;9.644;2022-08-19T06:54:39;8.75;;;5.35;;
38935;SDS011;25541;47.458;9.644;2022-08-19T06:57:07;8.95;;;5.50;;
38935;SDS011;25541;47.458;9.644;2022-08-19T06:59:38;7.95;;;5.10;;
38935;SDS011;25541;47.458;9.644;2022-08-19T07:02:05;8.38;;;4.80;;
38935;SDS011;25541;47.458;9.644;2022-08-19T07:04:32;11.15;;;6.60;;
38935;SDS011;25541;47.458;9.644;2022-08-19T07:07:03;14.70;;;8.27;;
38935;SDS011;25541;47.458;9.644;2022-08-19T07:09:35;14.05;;;8.05;;
38935;SDS011;25541;47.458;9.644;2022-08-19T07:12:03;15.23;;;8.35;;
38935;SDS011;25541;47.458;9.644;2022-08-19T07:14:31;14.75;;;8.20;;
38935;SDS011;25541;47.458;9.644;2022-08-19T07:17:02;20.55;;;10.35;;
38935;SDS011;25541;47.458;9.644;2022-08-19T07:19:29;22.75;;;12.20;;
38935;SDS011;25541;47.458;9.644;2022-08-19T07:21:56;26.20;;;13.13;;
38935;SDS011;25541;47.458;9.644;2022-08-19T07:24:25;25.88;;;12.68;;
38935;SDS011;25541;47.458;9.644;2022-08-19T07:26:52;24.85;;;12.95;;
38935;SDS011;25541;47.458;9.644;2022-08-19T07:29:20;30.65;;;6.35;;
38935;SDS011;25541;47.458;9.644;2022-08-19T07:31:52;77.13;;;9.70;;
38935;SDS011;25541;47.458;9.644;2022-08-19T07:34:21;128.65;;;8.88;;
38935;SDS011;25541;47.458;9.644;2022-08-19T07:36:48;38.03;;;4.80;;
38935;SDS011;25541;47.458;9.644;2022-08-19T07:39:19;23.45;;;6.90;;
38935;SDS011;25541;47.458;9.644;2022-08-19T07:41:49;34.08;;;6.95;;
38935;SDS011;25541;47.458;9.644;2022-08-19T07:44:18;37.67;;;7.85;;
38935;SDS011;25541;47.458;9.644;2022-08-19T07:46:46;56.10;;;11.15;;
38935;SDS011;25541;47.458;9.644;2022-08-19T07:49:14;56.15;;;10.85;;
38935;SDS011;25541;47.458;9.644;2022-08-19T07:54:18;58.47;;;11.07;;
38935;SDS011;25541;47.458;9.644;2022-08-19T07:56:46;70.38;;;12.57;;
38935;SDS011;25541;47.458;9.644;2022-08-19T07:59:12;75.25;;;12.23;;
38935;SDS011;25541;47.458;9.644;2022-08-19T08:01:38;35.03;;;9.50;;
38935;SDS011;25541;47.458;9.644;2022-08-19T08:04:05;30.23;;;8.05;;
38935;SDS011;25541;47.458;9.644;2022-08-19T08:06:50;31.00;;;7.40;;
38935;SDS011;25541;47.458;9.644;2022-08-19T08:09:36;19.83;;;5.70;;
38935;SDS011;25541;47.458;9.644;2022-08-19T08:12:05;41.70;;;8.75;;
38935;SDS011;25541;47.458;9.644;2022-08-19T08:14:39;44.25;;;8.98;;
38935;SDS011;25541;47.458;9.644;2022-08-19T08:17:12;29.30;;;7.47;;
38935;SDS011;25541;47.458;9.644;2022-08-19T08:19:40;33.65;;;9.25;;
38935;SDS011;25541;47.458;9.644;2022-08-19T08:22:07;35.50;;;9.60;;
38935;SDS011;25541;47.458;9.644;2022-08-19T08:24:53;47.40;;;10.95;;
38935;SDS011;25541;47.458;9.644;2022-08-19T08:27:19;24.58;;;8.95;;
38935;SDS011;25541;47.458;9.644;2022-08-19T08:29:45;38.83;;;11.25;;
38935;SDS011;25541;47.458;9.644;2022-08-19T08:32:10;36.67;;;9.85;;
38935;SDS011;25541;47.458;9.644;2022-08-19T08:34:36;38.33;;;10.07;;
38935;SDS011;25541;47.458;9.644;2022-08-19T08:37:02;39.35;;;11.00;;
38935;SDS011;25541;47.458;9.644;2022-08-19T08:39:28;41.88;;;11.13;;
38935;SDS011;25541;47.458;9.644;2022-08-19T08:47:36;44.47;;;12.50;;
38935;SDS011;25541;47.458;9.644;2022-08-19T08:50:05;54.42;;;13.82;;
38935;SDS011;25541;47.458;9.644;2022-08-19T08:52:45;53.70;;;13.48;;
38935;SDS011;25541;47.458;9.644;2022-08-19T08:55:14;63.38;;;15.95;;
38935;SDS011;25541;47.458;9.644;2022-08-19T09:00:33;54.22;;;15.65;;
38935;SDS011;25541;47.458;9.644;2022-08-19T09:03:02;53.33;;;12.93;;
38935;SDS011;25541;47.458;9.644;2022-08-19T09:08:17;41.30;;;11.60;;
38935;SDS011;25541;47.458;9.644;2022-08-19T09:10:49;61.45;;;13.93;;
38935;SDS011;25541;47.458;9.644;2022-08-19T09:13:40;75.63;;;15.73;;
38935;SDS011;25541;47.458;9.644;2022-08-19T09:16:18;31.42;;;10.60;;
38935;SDS011;25541;47.458;9.644;2022-08-19T09:21:18;40.67;;;13.25;;
38935;SDS011;25541;47.458;9.644;2022-08-19T09:23:45;46.72;;;14.23;;
38935;SDS011;25541;47.458;9.644;2022-08-19T09:26:13;32.53;;;12.45;;
38935;SDS011;25541;47.458;9.644;2022-08-19T09:28:41;49.97;;;14.82;;
38935;SDS011;25541;47.458;9.644;2022-08-19T09:31:15;53.78;;;15.90;;
38935;SDS011;25541;47.458;9.644;2022-08-19T09:33:43;49.90;;;15.20;;
38935;SDS011;25541;47.458;9.644;2022-08-19T09:36:10;57.83;;;16.30;;
38935;SDS011;25541;47.458;9.644;2022-08-19T09:38:38;46.30;;;15.15;;
38935;SDS011;25541;47.458;9.644;2022-08-19T09:41:06;60.45;;;16.63;;
38935;SDS011;25541;47.458;9.644;2022-08-19T09:43:36;56.15;;;16.20;;
38935;SDS011;25541;47.458;9.644;2022-08-19T09:46:03;46.45;;;15.23;;
38935;SDS011;25541;47.458;9.644;2022-08-19T09:48:31;51.13;;;14.32;;
38935;SDS011;25541;47.458;9.644;2022-08-19T09:53:31;31.80;;;10.32;;
38935;SDS011;25541;47.458;9.644;2022-08-19T09:55:57;30.42;;;10.70;;
38935;SDS011;25541;47.458;9.644;2022-08-19T09:58:22;29.70;;;10.63;;
38935;SDS011;25541;47.458;9.644;2022-08-19T10:03:22;45.25;;;12.48;;
38935;SDS011;25541;47.458;9.644;2022-08-19T10:05:48;34.90;;;12.00;;
38935;SDS011;25541;47.458;9.644;2022-08-19T10:08:15;38.50;;;12.48;;
38935;SDS011;25541;47.458;9.644;2022-08-19T10:10:43;41.25;;;12.48;;
38935;SDS011;25541;47.458;9.644;2022-08-19T10:13:09;31.67;;;10.82;;
38935;SDS011;25541;47.458;9.644;2022-08-19T10:15:35;25.75;;;9.70;;
38935;SDS011;25541;47.458;9.644;2022-08-19T10:18:04;28.02;;;8.27;;
38935;SDS011;25541;47.458;9.644;2022-08-19T10:20:30;26.02;;;7.95;;
38935;SDS011;25541;47.458;9.644;2022-08-19T10:22:57;12.52;;;5.07;;
38935;SDS011;25541;47.458;9.644;2022-08-19T10:25:24;9.68;;;3.60;;
38935;SDS011;25541;47.458;9.644;2022-08-19T10:27:51;7.95;;;3.17;;
38935;SDS011;25541;47.458;9.644;2022-08-19T10:30:18;13.05;;;4.50;;
38935;SDS011;25541;47.458;9.644;2022-08-19T10:32:44;9.45;;;4.45;;
38935;SDS011;25541;47.458;9.644;2022-08-19T10:35:11;23.13;;;6.53;;
38935;SDS011;25541;47.458;9.644;2022-08-19T10:37:37;10.73;;;3.95;;
38935;SDS011;25541;47.458;9.644;2022-08-19T10:40:06;16.38;;;5.70;;
38935;SDS011;25541;47.458;9.644;2022-08-19T10:42:34;11.20;;;4.43;;
38935;SDS011;25541;47.458;9.644;2022-08-19T10:45:00;12.95;;;4.18;;
38935;SDS011;25541;47.458;9.644;2022-08-19T10:47:26;10.07;;;4.15;;
38935;SDS011;25541;47.458;9.644;2022-08-19T10:49:52;11.63;;;4.68;;
38935;SDS011;25541;47.458;9.644;2022-08-19T10:52:39;11.35;;;4.65;;
38935;SDS011;25541;47.458;9.644;2022-08-19T10:55:09;12.38;;;5.30;;
38935;SDS011;25541;47.458;9.644;2022-08-19T10:57:54;23.75;;;7.72;;
38935;SDS011;25541;47.458;9.644;2022-08-19T11:00:20;27.98;;;9.02;;
38935;SDS011;25541;47.458;9.644;2022-08-19T11:02:47;25.38;;;10.73;;
38935;SDS011;25541;47.458;9.644;2022-08-19T11:05:14;27.90;;;11.20;;
38935;SDS011;25541;47.458;9.644;2022-08-19T11:07:40;29.05;;;12.25;;
38935;SDS011;25541;47.458;9.644;2022-08-19T11:10:06;26.52;;;12.05;;
38935;SDS011;25541;47.458;9.644;2022-08-19T11:12:36;46.33;;;15.35;;
38935;SDS011;25541;47.458;9.644;2022-08-19T11:15:04;28.88;;;12.95;;
38935;SDS011;25541;47.458;9.644;2022-08-19T11:17:35;31.60;;;12.52;;
38935;SDS011;25541;47.458;9.644;2022-08-19T11:20:09;33.85;;;13.23;;
38935;SDS011;25541;47.458;9.644;2022-08-19T11:22:39;32.92;;;13.57;;
38935;SDS011;25541;47.458;9.644;2022-08-19T11:25:05;28.45;;;12.38;;
38935;SDS011;25541;47.458;9.644;2022-08-19T11:27:32;33.72;;;13.98;;
38935;SDS011;25541;47.458;9.644;2022-08-19T11:29:58;28.80;;;12.43;;
38935;SDS011;25541;47.458;9.644;2022-08-19T11:32:25;29.77;;;12.20;;
38935;SDS011;25541;47.458;9.644;2022-08-19T11:34:52;32.42;;;12.93;;
38935;SDS011;25541;47.458;9.644;2022-08-19T11:37:18;26.23;;;11.70;;
38935;SDS011;25541;47.458;9.644;2022-08-19T11:39:43;37.55;;;13.52;;
38935;SDS011;25541;47.458;9.644;2022-08-19T11:42:09;34.90;;;13.57;;
38935;SDS011;25541;47.458;9.644;2022-08-19T11:45:04;24.40;;;10.95;;
38935;SDS011;25541;47.458;9.644;2022-08-19T11:47:30;26.13;;;11.85;;
38935;SDS011;25541;47.458;9.644;2022-08-19T11:49:56;20.23;;;9.55;;
38935;SDS011;25541;47.458;9.644;2022-08-19T11:52:22;16.48;;;8.30;;
38935;SDS011;25541;47.458;9.644;2022-08-19T11:54:48;12.80;;;7.43;;
38935;SDS011;25541;47.458;9.644;2022-08-19T11:57:14;8.77;;;4.85;;
38935;SDS011;25541;47.458;9.644;2022-08-19T11:59:42;8.10;;;4.78;;
38935;SDS011;25541;47.458;9.644;2022-08-19T12:02:12;10.55;;;5.13;;
38935;SDS011;25541;47.458;9.644;2022-08-19T12:04:40;10.70;;;5.43;;
38935;SDS011;25541;47.458;9.644;2022-08-19T12:07:06;10.00;;;5.05;;
38935;SDS011;25541;47.458;9.644;2022-08-19T12:09:31;9.35;;;4.78;;
38935;SDS011;25541;47.458;9.644;2022-08-19T12:11:59;9.27;;;4.78;;
38935;SDS011;25541;47.458;9.644;2022-08-19T12:14:26;8.80;;;4.82;;
38935;SDS011;25541;47.458;9.644;2022-08-19T12:16:55;6.38;;;4.00;;
38935;SDS011;25541;47.458;9.644;2022-08-19T12:19:21;8.70;;;4.68;;
38935;SDS011;25541;47.458;9.644;2022-08-19T12:21:46;5.65;;;3.50;;
38935;SDS011;25541;47.458;9.644;2022-08-19T12:24:12;7.72;;;3.80;;
38935;SDS011;25541;47.458;9.644;2022-08-19T12:26:38;8.50;;;3.83;;
38935;SDS011;25541;47.458;9.644;2022-08-19T12:29:04;6.50;;;3.30;;
38935;SDS011;25541;47.458;9.644;2022-08-19T12:31:30;6.45;;;3.45;;
38935;SDS011;25541;47.458;9.644;2022-08-19T12:33:57;5.22;;;2.50;;
38935;SDS011;25541;47.458;9.644;2022-08-19T12:36:23;5.97;;;3.03;;
38935;SDS011;25541;47.458;9.644;2022-08-19T12:38:49;5.50;;;2.60;;
38935;SDS011;25541;47.458;9.644;2022-08-19T12:41:16;3.90;;;2.35;;
38935;SDS011;25541;47.458;9.644;2022-08-19T12:43:43;4.68;;;2.78;;
38935;SDS011;25541;47.458;9.644;2022-08-19T12:46:10;6.00;;;3.58;;
38935;SDS011;25541;47.458;9.644;2022-08-19T12:48:36;9.32;;;4.65;;
38935;SDS011;25541;47.458;9.644;2022-08-19T12:51:08;7.40;;;4.28;;
38935;SDS011;25541;47.458;9.644;2022-08-19T12:53:36;7.45;;;4.13;;
38935;SDS011;25541;47.458;9.644;2022-08-19T12:56:02;8.93;;;4.50;;
38935;SDS011;25541;47.458;9.644;2022-08-19T12:58:28;8.52;;;4.57;;
38935;SDS011;25541;47.458;9.644;2022-08-19T13:00:54;8.30;;;4.72;;
38935;SDS011;25541;47.458;9.644;2022-08-19T13:03:20;8.13;;;4.63;;
38935;SDS011;25541;47.458;9.644;2022-08-19T13:05:47;9.95;;;5.07;;
38935;SDS011;25541;47.458;9.644;2022-08-19T13:08:15;10.63;;;5.57;;
38935;SDS011;25541;47.458;9.644;2022-08-19T13:10:42;12.60;;;5.72;;
38935;SDS011;25541;47.458;9.644;2022-08-19T13:13:08;9.65;;;5.20;;
38935;SDS011;25541;47.458;9.644;2022-08-19T13:15:36;10.90;;;5.50;;
38935;SDS011;25541;47.458;9.644;2022-08-19T13:18:05;14.98;;;7.32;;
38935;SDS011;25541;47.458;9.644;2022-08-19T13:20:31;10.48;;;5.82;;
38935;SDS011;25541;47.458;9.644;2022-08-19T13:22:57;11.63;;;6.55;;
38935;SDS011;25541;47.458;9.644;2022-08-19T13:25:24;12.35;;;6.95;;
38935;SDS011;25541;47.458;9.644;2022-08-19T13:27:50;17.83;;;8.55;;
38935;SDS011;25541;47.458;9.644;2022-08-19T13:30:16;13.18;;;8.02;;
38935;SDS011;25541;47.458;9.644;2022-08-19T13:33:02;14.68;;;8.57;;
38935;SDS011;25541;47.458;9.644;2022-08-19T13:35:41;16.38;;;9.25;;
38935;SDS011;25541;47.458;9.644;2022-08-19T13:38:16;20.35;;;9.73;;
38935;SDS011;25541;47.458;9.644;2022-08-19T13:40:43;18.85;;;10.10;;
38935;SDS011;25541;47.458;9.644;2022-08-19T13:43:09;16.80;;;9.40;;
38935;SDS011;25541;47.458;9.644;2022-08-19T13:45:35;19.58;;;9.95;;
38935;SDS011;25541;47.458;9.644;2022-08-19T13:48:03;17.48;;;10.65;;
38935;SDS011;25541;47.458;9.644;2022-08-19T13:50:33;21.80;;;11.85;;
38935;SDS011;25541;47.458;9.644;2022-08-19T13:53:03;21.67;;;12.52;;
38935;SDS011;25541;47.458;9.644;2022-08-19T13:55:29;20.70;;;11.93;;
38935;SDS011;25541;47.458;9.644;2022-08-19T13:57:56;22.35;;;12.73;;
38935;SDS011;25541;47.458;9.644;2022-08-19T14:00:23;21.92;;;12.65;;
38935;SDS011;25541;47.458;9.644;2022-08-19T14:02:52;17.92;;;10.57;;
38935;SDS011;25541;47.458;9.644;2022-08-19T14:05:20;20.80;;;11.07;;
38935;SDS011;25541;47.458;9.644;2022-08-19T14:07:46;19.13;;;11.13;;
38935;SDS011;25541;47.458;9.644;2022-08-19T14:10:13;18.80;;;11.30;;
38935;SDS011;25541;47.458;9.644;2022-08-19T14:12:39;20.48;;;10.80;;
38935;SDS011;25541;47.458;9.644;2022-08-19T14:15:06;18.73;;;11.45;;
38935;SDS011;25541;47.458;9.644;2022-08-19T14:17:33;17.63;;;10.60;;
38935;SDS011;25541;47.458;9.644;2022-08-19T14:20:03;18.88;;;11.02;;
38935;SDS011;25541;47.458;9.644;2022-08-19T14:22:33;17.92;;;10.82;;
38935;SDS011;25541;47.458;9.644;2022-08-19T14:25:00;18.88;;;10.77;;
38935;SDS011;25541;47.458;9.644;2022-08-19T14:27:26;16.65;;;10.30;;
38935;SDS011;25541;47.458;9.644;2022-08-19T14:29:52;15.32;;;9.93;;
38935;SDS011;25541;47.458;9.644;2022-08-19T14:32:18;15.27;;;10.00;;
38935;SDS011;25541;47.458;9.644;2022-08-19T14:34:43;16.08;;;9.95;;
38935;SDS011;25541;47.458;9.644;2022-08-19T14:37:13;15.93;;;10.35;;
38935;SDS011;25541;47.458;9.644;2022-08-19T14:39:39;20.58;;;12.23;;
38935;SDS011;25541;47.458;9.644;2022-08-19T14:42:07;11.02;;;6.43;;
38935;SDS011;25541;47.458;9.644;2022-08-19T14:44:33;9.02;;;5.45;;
38935;SDS011;25541;47.458;9.644;2022-08-19T14:46:59;9.45;;;4.43;;
38935;SDS011;25541;47.458;9.644;2022-08-19T14:49:25;10.98;;;5.43;;
38935;SDS011;25541;47.458;9.644;2022-08-19T14:51:51;10.40;;;6.15;;
38935;SDS011;25541;47.458;9.644;2022-08-19T14:54:17;5.65;;;3.17;;
38935;SDS011;25541;47.458;9.644;2022-08-19T14:56:43;4.78;;;2.80;;
38935;SDS011;25541;47.458;9.644;2022-08-19T14:59:09;5.35;;;2.97;;
38935;SDS011;25541;47.458;9.644;2022-08-19T15:01:35;5.00;;;2.75;;
38935;SDS011;25541;47.458;9.644;2022-08-19T15:04:01;4.90;;;2.05;;
38935;SDS011;25541;47.458;9.644;2022-08-19T15:06:27;8.10;;;3.30;;
38935;SDS011;25541;47.458;9.644;2022-08-19T15:08:53;8.30;;;4.38;;
38935;SDS011;25541;47.458;9.644;2022-08-19T15:11:21;12.57;;;7.90;;
38935;SDS011;25541;47.458;9.644;2022-08-19T15:13:50;17.27;;;8.95;;
38935;SDS011;25541;47.458;9.644;2022-08-19T15:16:16;16.40;;;11.00;;
38935;SDS011;25541;47.458;9.644;2022-08-19T15:18:43;17.23;;;11.38;;
38935;SDS011;25541;47.458;9.644;2022-08-19T15:21:10;18.30;;;12.07;;
38935;SDS011;25541;47.458;9.644;2022-08-19T15:23:37;18.17;;;11.88;;
38935;SDS011;25541;47.458;9.644;2022-08-19T15:26:04;17.77;;;11.65;;
38935;SDS011;25541;47.458;9.644;2022-08-19T15:28:30;19.15;;;12.15;;
38935;SDS011;25541;47.458;9.644;2022-08-19T15:30:57;19.95;;;13.02;;
38935;SDS011;25541;47.458;9.644;2022-08-19T15:33:23;18.70;;;11.63;;
38935;SDS011;25541;47.458;9.644;2022-08-19T15:35:49;10.10;;;5.13;;
38935;SDS011;25541;47.458;9.644;2022-08-19T15:38:15;9.80;;;5.90;;
38935;SDS011;25541;47.458;9.644;2022-08-19T15:40:46;11.20;;;6.35;;
38935;SDS011;25541;47.458;9.644;2022-08-19T15:43:14;9.38;;;5.95;;
38935;SDS011;25541;47.458;9.644;2022-08-19T15:45:41;15.52;;;9.35;;
38935;SDS011;25541;47.458;9.644;2022-08-19T15:48:08;9.93;;;6.43;;
38935;SDS011;25541;47.458;9.644;2022-08-19T15:50:34;14.35;;;8.85;;
38935;SDS011;25541;47.458;9.644;2022-08-19T15:53:01;16.88;;;9.02;;
38935;SDS011;25541;47.458;9.644;2022-08-19T15:55:31;11.35;;;7.88;;
38935;SDS011;25541;47.458;9.644;2022-08-19T15:58:09;9.77;;;6.18;;
38935;SDS011;25541;47.458;9.644;2022-08-19T16:00:57;10.63;;;5.68;;
38935;SDS011;25541;47.458;9.644;2022-08-19T16:03:48;10.27;;;4.95;;
38935;SDS011;25541;47.458;9.644;2022-08-19T16:06:33;7.93;;;4.55;;
38935;SDS011;25541;47.458;9.644;2022-08-19T16:09:00;9.65;;;4.55;;
38935;SDS011;25541;47.458;9.644;2022-08-19T16:11:30;9.32;;;3.97;;
38935;SDS011;25541;47.458;9.644;2022-08-19T16:13:58;9.38;;;4.07;;
38935;SDS011;25541;47.458;9.644;2022-08-19T16:16:26;6.15;;;3.55;;
38935;SDS011;25541;47.458;9.644;2022-08-19T16:18:55;4.95;;;2.40;;
38935;SDS011;25541;47.458;9.644;2022-08-19T16:21:22;5.47;;;2.80;;
38935;SDS011;25541;47.458;9.644;2022-08-19T16:23:50;5.80;;;2.13;;
38935;SDS011;25541;47.458;9.644;2022-08-19T16:26:17;4.72;;;2.33;;
38935;SDS011;25541;47.458;9.644;2022-08-19T16:28:44;4.20;;;1.83;;
38935;SDS011;25541;47.458;9.644;2022-08-19T16:31:11;3.88;;;2.00;;
38935;SDS011;25541;47.458;9.644;2022-08-19T16:33:37;6.95;;;1.42;;
38935;SDS011;25541;47.458;9.644;2022-08-19T16:36:04;3.65;;;1.83;;
38935;SDS011;25541;47.458;9.644;2022-08-19T16:38:30;5.47;;;1.33;;
38935;SDS011;25541;47.458;9.644;2022-08-19T16:40:57;3.55;;;1.40;;
38935;SDS011;25541;47.458;9.644;2022-08-19T16:43:26;3.47;;;1.10;;
38935;SDS011;25541;47.458;9.644;2022-08-19T16:45:53;2.67;;;1.30;;
38935;SDS011;25541;47.458;9.644;2022-08-19T16:48:20;2.55;;;1.13;;
38935;SDS011;25541;47.458;9.644;2022-08-19T16:50:47;3.60;;;1.55;;
38935;SDS011;25541;47.458;9.644;2022-08-19T16:53:15;3.03;;;1.42;;
38935;SDS011;25541;47.458;9.644;2022-08-19T16:55:43;3.40;;;1.80;;
38935;SDS011;25541;47.458;9.644;2022-08-19T16:58:10;3.28;;;1.30;;
38935;SDS011;25541;47.458;9.644;2022-08-19T17:00:36;3.95;;;1.85;;
38935;SDS011;25541;47.458;9.644;2022-08-19T17:03:05;4.40;;;1.80;;
38935;SDS011;25541;47.458;9.644;2022-08-19T17:05:40;4.53;;;1.77;;
38935;SDS011;25541;47.458;9.644;2022-08-19T17:08:06;3.13;;;1.50;;
38935;SDS011;25541;47.458;9.644;2022-08-19T17:10:32;3.38;;;1.67;;
38935;SDS011;25541;47.458;9.644;2022-08-19T17:12:58;3.90;;;1.45;;
38935;SDS011;25541;47.458;9.644;2022-08-19T17:15:24;2.50;;;1.25;;
38935;SDS011;25541;47.458;9.644;2022-08-19T17:17:50;4.88;;;1.60;;
38935;SDS011;25541;47.458;9.644;2022-08-19T17:20:17;4.00;;;1.77;;
38935;SDS011;25541;47.458;9.644;2022-08-19T17:22:43;3.10;;;1.67;;
38935;SDS011;25541;47.458;9.644;2022-08-19T17:25:09;3.22;;;1.90;;
38935;SDS011;25541;47.458;9.644;2022-08-19T17:27:35;3.10;;;1.60;;
38935;SDS011;25541;47.458;9.644;2022-08-19T17:30:02;3.85;;;2.20;;
38935;SDS011;25541;47.458;9.644;2022-08-19T17:32:30;4.30;;;2.33;;
38935;SDS011;25541;47.458;9.644;2022-08-19T17:34:58;4.30;;;2.13;;
38935;SDS011;25541;47.458;9.644;2022-08-19T17:37:24;4.20;;;2.03;;
38935;SDS011;25541;47.458;9.644;2022-08-19T17:39:50;3.97;;;2.15;;
38935;SDS011;25541;47.458;9.644;2022-08-19T17:42:16;3.65;;;1.95;;
38935;SDS011;25541;47.458;9.644;2022-08-19T17:44:41;3.75;;;1.95;;
38935;SDS011;25541;47.458;9.644;2022-08-19T17:47:07;3.60;;;2.10;;
38935;SDS011;25541;47.458;9.644;2022-08-19T17:49:33;5.00;;;2.33;;
38935;SDS011;25541;47.458;9.644;2022-08-19T17:52:01;3.97;;;2.00;;
38935;SDS011;25541;47.458;9.644;2022-08-19T17:54:27;4.07;;;2.10;;